createdAt,value
2023-04-11T00:00:51.848Z,8.85
2023-04-11T00:01:55.110Z,8.90
2023-04-11T00:02:57.454Z,8.83
2023-04-11T00:03:59.713Z,8.77
2023-04-11T00:05:01.923Z,8.74
2023-04-11T00:06:07.765Z,8.72
2023-04-11T00:07:09.776Z,8.63
2023-04-11T00:08:11.827Z,8.56
2023-04-11T00:09:13.715Z,8.56
2023-04-11T00:10:18.321Z,8.56
2023-04-11T00:11:20.245Z,8.65
2023-04-11T00:12:22.135Z,8.59
2023-04-11T00:13:24.031Z,8.65
2023-04-11T00:14:26.090Z,8.64
2023-04-11T00:15:30.944Z,8.59
2023-04-11T00:16:33.179Z,8.55
2023-04-11T00:17:36.224Z,8.44
2023-04-11T00:18:38.222Z,8.43
2023-04-11T00:19:40.112Z,8.46
2023-04-11T00:20:42.554Z,8.47
2023-04-11T00:21:44.576Z,8.49
2023-04-11T00:22:46.515Z,8.46
2023-04-11T00:23:48.381Z,8.55
2023-04-11T00:24:50.267Z,8.61
2023-04-11T00:25:52.227Z,8.63
2023-04-11T00:26:55.705Z,8.59
2023-04-11T00:27:57.976Z,8.58
2023-04-11T00:28:59.854Z,8.60
2023-04-11T00:30:04.048Z,8.60
2023-04-11T00:31:06.711Z,8.66
2023-04-11T00:32:08.738Z,8.56
2023-04-11T00:33:10.861Z,8.62
2023-04-11T00:34:13.199Z,8.58
2023-04-11T00:35:15.906Z,8.49
2023-04-11T00:36:18.201Z,8.58
2023-04-11T00:37:21.953Z,8.56
2023-04-11T00:38:25.262Z,8.54
2023-04-11T00:39:27.644Z,8.56
2023-04-11T00:40:30.925Z,8.54
2023-04-11T00:41:32.936Z,8.53
2023-04-11T00:42:34.796Z,8.52
2023-04-11T00:43:37.261Z,8.56
2023-04-11T00:44:39.130Z,8.55
2023-04-11T00:45:42.430Z,8.47
2023-04-11T00:46:46.262Z,8.51
2023-04-11T00:47:50.812Z,8.54
2023-04-11T00:48:53.865Z,8.52
2023-04-11T00:49:55.946Z,8.33
2023-04-11T00:50:58.717Z,8.44
2023-04-11T00:52:02.343Z,8.52
2023-04-11T00:53:04.703Z,8.53
2023-04-11T00:54:06.831Z,8.45
2023-04-11T00:55:09.603Z,8.46
2023-04-11T00:56:11.969Z,8.47
2023-04-11T00:57:14.692Z,8.34
2023-04-11T00:58:17.306Z,8.26
2023-04-11T00:59:20.001Z,8.36
2023-04-11T01:00:23.472Z,8.34
2023-04-11T01:01:25.638Z,8.35
2023-04-11T01:02:27.777Z,8.30
2023-04-11T01:03:30.376Z,8.25
2023-04-11T01:04:32.525Z,8.34
2023-04-11T01:05:35.319Z,8.22
2023-04-11T01:06:38.030Z,8.21
2023-04-11T01:07:42.604Z,8.22
2023-04-11T01:08:46.408Z,8.33
2023-04-11T01:09:49.305Z,8.16
2023-04-11T01:10:52.524Z,8.20
2023-04-11T01:11:56.795Z,8.26
2023-04-11T01:13:01.282Z,8.28
2023-04-11T01:14:04.834Z,8.27
2023-04-11T01:15:07.688Z,8.28
2023-04-11T01:16:10.616Z,8.21
2023-04-11T01:17:13.870Z,8.25
2023-04-11T01:18:15.735Z,8.27
2023-04-11T01:19:19.650Z,8.26
2023-04-11T01:20:22.140Z,8.20
2023-04-11T01:21:26.486Z,8.27
2023-04-11T01:22:29.412Z,8.29
2023-04-11T01:23:31.711Z,8.15
2023-04-11T01:24:33.866Z,8.16
2023-04-11T01:25:35.773Z,8.10
2023-04-11T01:26:39.631Z,8.15
2023-04-11T01:27:42.685Z,8.07
2023-04-11T01:28:45.822Z,8.06
2023-04-11T01:29:48.163Z,8.08
2023-04-11T01:30:51.247Z,8.10
2023-04-11T01:31:53.362Z,8.07
2023-04-11T01:32:55.371Z,8.15
2023-04-11T01:33:59.973Z,8.12
2023-04-11T01:35:04.656Z,7.94
2023-04-11T01:36:08.683Z,7.94
2023-04-11T01:37:11.292Z,8.02
2023-04-11T01:38:13.172Z,7.96
2023-04-11T01:39:15.159Z,7.97
2023-04-11T01:40:18.740Z,7.89
2023-04-11T01:41:22.972Z,7.90
2023-04-11T01:42:26.324Z,7.94
2023-04-11T01:43:28.485Z,7.88
2023-04-11T01:44:32.061Z,7.83
2023-04-11T01:45:35.723Z,7.86
2023-04-11T01:46:41.721Z,7.89
2023-04-11T01:47:47.443Z,7.99
2023-04-11T01:48:52.018Z,7.92
2023-04-11T01:49:54.117Z,7.89
2023-04-11T01:50:56.403Z,7.93
2023-04-11T01:52:00.673Z,7.85
2023-04-11T01:53:03.567Z,7.85
2023-04-11T01:54:05.465Z,7.89
2023-04-11T01:55:08.278Z,7.82
2023-04-11T01:56:12.156Z,7.91
2023-04-11T01:57:14.636Z,7.93
2023-04-11T01:58:16.519Z,7.95
2023-04-11T01:59:18.473Z,7.97
2023-04-11T02:00:21.826Z,7.94
2023-04-11T02:01:24.945Z,7.78
2023-04-11T02:02:27.073Z,7.75
2023-04-11T02:03:29.236Z,7.76
2023-04-11T02:04:31.405Z,7.76
2023-04-11T02:05:33.272Z,7.77
2023-04-11T02:06:35.336Z,7.85
2023-04-11T02:07:38.302Z,7.85
2023-04-11T02:08:40.277Z,7.71
2023-04-11T02:09:42.163Z,7.81
2023-04-11T02:10:44.303Z,7.80
2023-04-11T02:11:46.183Z,7.75
2023-04-11T02:12:48.152Z,7.72
2023-04-11T02:13:50.015Z,7.77
2023-04-11T02:14:51.891Z,7.69
2023-04-11T02:15:53.821Z,7.71
2023-04-11T02:16:55.926Z,7.70
2023-04-11T02:17:58.475Z,7.75
2023-04-11T02:19:01.111Z,7.63
2023-04-11T02:20:04.333Z,7.72
2023-04-11T02:21:07.024Z,7.76
2023-04-11T02:22:09.022Z,7.76
2023-04-11T02:23:10.912Z,7.65
2023-04-11T02:24:13.183Z,7.74
2023-04-11T02:25:15.549Z,7.80
2023-04-11T02:26:17.697Z,7.78
2023-04-11T02:27:19.657Z,7.74
2023-04-11T02:28:21.540Z,7.66
2023-04-11T02:29:23.498Z,7.68
2023-04-11T02:30:25.636Z,7.63
2023-04-11T02:31:27.646Z,7.61
2023-04-11T02:32:29.692Z,7.55
2023-04-11T02:33:31.681Z,7.46
2023-04-11T02:34:33.741Z,7.58
2023-04-11T02:35:35.661Z,7.57
2023-04-11T02:36:38.228Z,7.63
2023-04-11T02:37:40.328Z,7.60
2023-04-11T02:38:42.368Z,7.62
2023-04-11T02:39:44.535Z,7.64
2023-04-11T02:40:47.173Z,7.61
2023-04-11T02:41:49.988Z,7.65
2023-04-11T02:42:51.873Z,7.62
2023-04-11T02:43:54.531Z,7.64
2023-04-11T02:44:56.418Z,7.57
2023-04-11T02:46:09.493Z,7.55
2023-04-11T02:47:02.569Z,7.57
2023-04-11T02:48:05.216Z,7.52
2023-04-11T02:49:07.745Z,7.40
2023-04-11T02:50:10.897Z,7.45
2023-04-11T02:51:13.888Z,7.37
2023-04-11T02:52:17.423Z,7.51
2023-04-11T02:53:19.625Z,7.53
2023-04-11T02:54:21.611Z,7.46
2023-04-11T02:55:23.545Z,7.52
2023-04-11T02:56:25.915Z,7.52
2023-04-11T02:57:27.846Z,7.46
2023-04-11T02:58:29.771Z,7.50
2023-04-11T02:59:31.810Z,7.50
2023-04-11T03:00:34.245Z,7.39
2023-04-11T03:01:36.223Z,7.46
2023-04-11T03:02:38.411Z,7.41
2023-04-11T03:03:40.710Z,7.39
2023-04-11T03:04:42.739Z,7.25
2023-04-11T03:05:46.225Z,7.37
2023-04-11T03:06:48.377Z,7.41
2023-04-11T03:07:50.551Z,7.45
2023-04-11T03:08:52.517Z,7.36
2023-04-11T03:09:54.652Z,7.39
2023-04-11T03:10:56.835Z,7.23
2023-04-11T03:11:58.893Z,7.38
2023-04-11T03:13:01.021Z,7.37
2023-04-11T03:14:03.216Z,7.41
2023-04-11T03:15:06.410Z,7.41
2023-04-11T03:16:09.066Z,7.29
2023-04-11T03:17:11.040Z,7.25
2023-04-11T03:18:13.034Z,7.24
2023-04-11T03:19:14.990Z,7.27
2023-04-11T03:20:17.998Z,7.23
2023-04-11T03:21:19.965Z,7.26
2023-04-11T03:22:21.849Z,7.28
2023-04-11T03:23:23.725Z,7.23
2023-04-11T03:24:26.339Z,7.24
2023-04-11T03:25:28.206Z,7.20
2023-04-11T03:26:30.250Z,7.29
2023-04-11T03:27:32.138Z,7.29
2023-04-11T03:28:34.194Z,7.22
2023-04-11T03:29:36.150Z,7.16
2023-04-11T03:30:39.966Z,7.23
2023-04-11T03:31:41.924Z,7.24
2023-04-11T03:32:44.481Z,7.14
2023-04-11T03:33:46.690Z,7.16
2023-04-11T03:34:50.628Z,7.26
2023-04-11T03:35:52.551Z,7.23
2023-04-11T03:36:54.633Z,7.27
2023-04-11T03:37:56.486Z,7.26
2023-04-11T03:38:58.463Z,7.39
2023-04-11T03:40:01.819Z,7.35
2023-04-11T03:41:04.189Z,7.33
2023-04-11T03:42:06.058Z,7.40
2023-04-11T03:43:07.933Z,7.40
2023-04-11T03:44:10.144Z,7.40
2023-04-11T03:45:12.063Z,7.31
2023-04-11T03:46:14.572Z,7.25
2023-04-11T03:47:16.472Z,7.27
2023-04-11T03:48:19.993Z,7.28
2023-04-11T03:49:22.324Z,7.45
2023-04-11T03:50:24.688Z,7.34
2023-04-11T03:51:26.577Z,7.45
2023-04-11T03:52:29.238Z,7.46
2023-04-11T03:53:31.130Z,7.41
2023-04-11T03:54:33.293Z,7.50
2023-04-11T03:55:35.700Z,7.44
2023-04-11T03:56:38.021Z,7.47
2023-04-11T03:57:39.993Z,7.49
2023-04-11T03:58:41.879Z,7.48
2023-04-11T03:59:43.766Z,7.53
2023-04-11T04:00:47.218Z,7.56
2023-04-11T04:01:49.177Z,7.58
2023-04-11T04:02:51.316Z,7.49
2023-04-11T04:03:53.886Z,7.48
2023-04-11T04:04:56.199Z,7.50
2023-04-11T04:05:58.243Z,7.48
2023-04-11T04:07:00.615Z,7.52
2023-04-11T04:08:02.507Z,7.47
2023-04-11T04:09:04.524Z,7.46
2023-04-11T04:10:07.728Z,7.55
2023-04-11T04:11:09.718Z,7.46
2023-04-11T04:12:11.702Z,7.37
2023-04-11T04:13:13.566Z,7.42
2023-04-11T04:14:16.357Z,7.42
2023-04-11T04:15:18.346Z,7.44
2023-04-11T04:16:20.415Z,7.46
2023-04-11T04:17:23.381Z,7.57
2023-04-11T04:18:25.579Z,7.48
2023-04-11T04:19:27.547Z,7.55
2023-04-11T04:20:30.406Z,7.56
2023-04-11T04:21:32.539Z,7.64
2023-04-11T04:22:34.774Z,7.76
2023-04-11T04:23:38.690Z,7.68
2023-04-11T04:24:41.094Z,7.83
2023-04-11T04:25:52.095Z,7.71
2023-04-11T04:26:55.394Z,7.59
2023-04-11T04:27:57.391Z,7.82
2023-04-11T04:28:59.356Z,7.82
2023-04-11T04:30:03.730Z,7.88
2023-04-11T04:31:06.413Z,7.83
2023-04-11T04:32:08.559Z,7.93
2023-04-11T04:33:11.137Z,7.96
2023-04-11T04:34:13.159Z,7.97
2023-04-11T04:35:15.317Z,7.96
2023-04-11T04:36:17.403Z,8.03
2023-04-11T04:37:19.452Z,8.05
2023-04-11T04:38:21.446Z,8.09
2023-04-11T04:39:23.490Z,8.09
2023-04-11T04:40:25.491Z,8.19
2023-04-11T04:41:27.571Z,8.24
2023-04-11T04:42:29.669Z,8.29
2023-04-11T04:43:32.441Z,8.27
2023-04-11T04:44:34.672Z,8.33
2023-04-11T04:45:36.777Z,8.37
2023-04-11T04:46:38.936Z,8.40
2023-04-11T04:47:41.566Z,8.39
2023-04-11T04:48:44.506Z,8.45
2023-04-11T04:49:46.404Z,8.51
2023-04-11T04:50:48.507Z,8.52
2023-04-11T04:51:50.500Z,8.62
2023-04-11T04:52:52.358Z,8.65
2023-04-11T04:53:54.644Z,8.73
2023-04-11T04:54:57.663Z,8.72
2023-04-11T04:56:00.768Z,8.80
2023-04-11T04:57:04.381Z,8.85
2023-04-11T04:58:06.297Z,8.93
2023-04-11T04:59:08.210Z,8.95
2023-04-11T05:00:12.086Z,8.91
2023-04-11T05:01:15.297Z,9.00
2023-04-11T05:02:17.389Z,9.12
2023-04-11T05:03:19.536Z,9.07
2023-04-11T05:04:21.836Z,9.16
2023-04-11T05:05:23.886Z,9.17
2023-04-11T05:06:27.129Z,9.23
2023-04-11T05:07:29.519Z,9.39
2023-04-11T05:08:31.417Z,9.48
2023-04-11T05:09:33.375Z,9.49
2023-04-11T05:10:35.577Z,9.51
2023-04-11T05:11:37.833Z,9.61
2023-04-11T05:12:39.786Z,9.61
2023-04-11T05:13:41.635Z,9.74
2023-04-11T05:14:43.523Z,9.83
2023-04-11T05:15:49.343Z,9.90
2023-04-11T05:16:51.489Z,9.96
2023-04-11T05:17:53.582Z,9.95
2023-04-11T05:18:55.611Z,10.00
2023-04-11T05:19:57.469Z,10.15
2023-04-11T05:21:00.905Z,10.35
2023-04-11T05:22:03.231Z,10.48
2023-04-11T05:23:05.541Z,10.54
2023-04-11T05:24:08.160Z,10.66
2023-04-11T05:25:10.158Z,10.86
2023-04-11T05:26:14.280Z,11.04
2023-04-11T05:27:16.294Z,11.03
2023-04-11T05:28:18.150Z,11.15
2023-04-11T05:29:20.998Z,11.38
2023-04-11T05:30:23.118Z,11.46
2023-04-11T05:31:25.085Z,11.60
2023-04-11T05:32:26.979Z,11.68
2023-04-11T05:33:29.551Z,11.91
2023-04-11T05:34:31.964Z,11.89
2023-04-11T05:35:34.678Z,12.03
2023-04-11T05:36:36.972Z,12.08
2023-04-11T05:37:39.385Z,11.87
2023-04-11T05:38:42.958Z,12.01
2023-04-11T05:39:45.111Z,12.27
2023-04-11T05:40:47.457Z,12.30
2023-04-11T05:41:50.515Z,12.25
2023-04-11T05:42:52.382Z,12.17
2023-04-11T05:43:54.551Z,12.35
2023-04-11T05:44:56.874Z,12.48
2023-04-11T05:46:00.536Z,12.61
2023-04-11T05:47:02.592Z,12.61
2023-04-11T05:48:08.075Z,12.62
2023-04-11T05:49:10.163Z,12.41
2023-04-11T05:50:14.355Z,12.33
2023-04-11T05:51:16.513Z,12.44
2023-04-11T05:52:18.376Z,12.52
2023-04-11T05:53:20.250Z,12.44
2023-04-11T05:54:33.132Z,12.43
2023-04-11T05:55:36.067Z,12.56
2023-04-11T05:56:38.061Z,12.70
2023-04-11T05:57:39.956Z,12.77
2023-04-11T05:58:42.741Z,12.96
2023-04-11T05:59:46.050Z,13.07
2023-04-11T06:00:48.054Z,12.94
2023-04-11T06:01:50.084Z,12.99
2023-04-11T06:02:52.260Z,13.01
2023-04-11T06:03:54.396Z,13.04
2023-04-11T06:04:57.042Z,13.31
2023-04-11T06:05:59.638Z,13.41
2023-04-11T06:07:01.679Z,13.44
2023-04-11T06:08:06.378Z,13.55
2023-04-11T06:09:09.141Z,13.70
2023-04-11T06:10:11.906Z,13.71
2023-04-11T06:11:13.858Z,13.58
2023-04-11T06:12:15.804Z,13.73
2023-04-11T06:13:17.687Z,13.93
2023-04-11T06:14:19.564Z,13.97
2023-04-11T06:15:23.703Z,13.84
2023-04-11T06:16:25.910Z,14.04
2023-04-11T06:17:27.983Z,13.90
2023-04-11T06:18:29.942Z,14.07
2023-04-11T06:19:32.997Z,14.36
2023-04-11T06:20:35.147Z,14.29
2023-04-11T06:21:37.161Z,14.11
2023-04-11T06:22:39.149Z,14.29
2023-04-11T06:23:41.234Z,14.27
2023-04-11T06:24:43.405Z,14.46
2023-04-11T06:25:45.303Z,14.52
2023-04-11T06:26:47.355Z,14.70
2023-04-11T06:27:49.869Z,14.72
2023-04-11T06:28:51.976Z,14.80
2023-04-11T06:29:53.951Z,14.84
2023-04-11T06:30:56.254Z,14.79
2023-04-11T06:31:58.547Z,14.89
2023-04-11T06:33:00.577Z,14.74
2023-04-11T06:34:02.546Z,15.07
2023-04-11T06:35:05.543Z,15.22
2023-04-11T06:36:09.029Z,15.17
2023-04-11T06:37:11.084Z,14.86
2023-04-11T06:38:12.984Z,15.20
2023-04-11T06:39:17.796Z,15.39
2023-04-11T06:40:20.112Z,15.43
2023-04-11T06:41:22.109Z,15.37
2023-04-11T06:42:23.978Z,15.26
2023-04-11T06:43:26.586Z,15.10
2023-04-11T06:44:29.340Z,15.23
2023-04-11T06:45:31.372Z,15.15
2023-04-11T06:46:34.013Z,15.12
2023-04-11T06:47:36.368Z,15.26
2023-04-11T06:48:38.377Z,15.43
2023-04-11T06:49:40.825Z,15.46
2023-04-11T06:50:43.220Z,15.50
2023-04-11T06:51:45.845Z,15.41
2023-04-11T06:52:47.914Z,15.30
2023-04-11T06:53:49.832Z,15.33
2023-04-11T06:54:51.715Z,15.37
2023-04-11T06:55:53.668Z,15.33
2023-04-11T06:56:55.860Z,15.56
2023-04-11T06:57:58.755Z,15.46
2023-04-11T06:59:01.600Z,15.59
2023-04-11T07:00:05.057Z,15.82
2023-04-11T07:01:07.563Z,15.48
2023-04-11T07:02:10.005Z,15.17
2023-04-11T07:03:12.439Z,15.00
2023-04-11T07:04:15.345Z,15.01
2023-04-11T07:05:19.172Z,15.10
2023-04-11T07:06:21.715Z,14.96
2023-04-11T07:07:24.107Z,14.86
2023-04-11T07:08:26.562Z,15.20
2023-04-11T07:09:28.550Z,15.28
2023-04-11T07:10:31.151Z,15.05
2023-04-11T07:11:33.072Z,15.20
2023-04-11T07:12:34.972Z,15.20
2023-04-11T07:13:37.562Z,15.01
2023-04-11T07:14:39.801Z,14.90
2023-04-11T07:15:41.716Z,15.32
2023-04-11T07:16:44.429Z,15.19
2023-04-11T07:17:47.820Z,15.38
2023-04-11T07:18:49.800Z,15.66
2023-04-11T07:19:51.788Z,15.79
2023-04-11T07:21:14.296Z,15.74
2023-04-11T07:22:16.230Z,15.69
2023-04-11T07:23:18.205Z,15.92
2023-04-11T07:24:20.072Z,16.22
2023-04-11T07:25:27.015Z,16.11
2023-04-11T07:26:29.095Z,16.25
2023-04-11T07:27:31.085Z,16.27
2023-04-11T07:28:33.043Z,15.87
2023-04-11T07:29:35.007Z,16.09
2023-04-11T07:30:37.104Z,16.09
2023-04-11T07:31:39.128Z,16.15
2023-04-11T07:32:41.714Z,15.82
2023-04-11T07:33:43.657Z,16.07
2023-04-11T07:34:45.509Z,16.24
2023-04-11T07:35:47.509Z,16.08
2023-04-11T07:36:49.573Z,16.22
2023-04-11T07:37:52.652Z,15.89
2023-04-11T07:38:54.527Z,15.81
2023-04-11T07:39:56.408Z,15.99
2023-04-11T07:41:00.818Z,16.15
2023-04-11T07:42:02.769Z,16.24
2023-04-11T07:43:04.728Z,16.37
2023-04-11T07:44:06.726Z,16.51
2023-04-11T07:45:10.037Z,16.54
2023-04-11T07:46:12.599Z,16.29
2023-04-11T07:47:15.877Z,15.87
2023-04-11T07:48:17.836Z,15.82
2023-04-11T07:49:19.782Z,15.82
2023-04-11T07:50:21.849Z,15.96
2023-04-11T07:51:23.712Z,15.84
2023-04-11T07:52:25.687Z,15.73
2023-04-11T07:53:27.648Z,15.79
2023-04-11T07:54:29.640Z,15.95
2023-04-11T07:55:31.503Z,15.81
2023-04-11T07:56:33.603Z,15.70
2023-04-11T07:57:35.603Z,15.87
2023-04-11T07:58:37.522Z,15.90
2023-04-11T07:59:40.233Z,15.99
2023-04-11T08:00:42.498Z,15.88
2023-04-11T08:01:44.531Z,15.97
2023-04-11T08:02:46.620Z,15.96
2023-04-11T08:03:49.094Z,15.88
2023-04-11T08:04:53.578Z,15.69
2023-04-11T08:05:55.674Z,15.70
2023-04-11T08:06:57.638Z,15.87
2023-04-11T08:08:00.278Z,16.05
2023-04-11T08:09:02.171Z,15.92
2023-04-11T08:10:07.776Z,15.64
2023-04-11T08:11:09.776Z,15.52
2023-04-11T08:12:11.706Z,15.54
2023-04-11T08:13:13.564Z,15.65
2023-04-11T08:14:15.428Z,15.45
2023-04-11T08:15:18.320Z,15.72
2023-04-11T08:16:20.324Z,15.53
2023-04-11T08:17:28.111Z,15.55
2023-04-11T08:18:26.168Z,15.52
2023-04-11T08:19:28.319Z,15.27
2023-04-11T08:20:31.347Z,15.29
2023-04-11T08:21:33.253Z,15.28
2023-04-11T08:22:35.158Z,15.21
2023-04-11T08:23:39.008Z,15.21
2023-04-11T08:24:41.014Z,15.10
2023-04-11T08:25:42.999Z,14.95
2023-04-11T08:26:45.123Z,15.03
2023-04-11T08:27:49.591Z,15.15
2023-04-11T08:28:51.606Z,15.10
2023-04-11T08:29:53.549Z,15.30
2023-04-11T08:30:55.870Z,15.11
2023-04-11T08:31:58.058Z,15.20
2023-04-11T08:32:59.993Z,15.25
2023-04-11T08:34:03.867Z,15.19
2023-04-11T08:35:06.844Z,15.19
2023-04-11T08:36:10.838Z,15.11
2023-04-11T08:37:13.042Z,15.15
2023-04-11T08:38:14.974Z,15.18
2023-04-11T08:39:16.847Z,15.26
2023-04-11T08:40:19.121Z,15.27
2023-04-11T08:41:21.007Z,15.15
2023-04-11T08:42:26.004Z,15.32
2023-04-11T08:43:28.147Z,15.23
2023-04-11T08:44:30.530Z,15.35
2023-04-11T08:45:32.787Z,15.58
2023-04-11T08:46:39.038Z,15.77
2023-04-11T08:47:43.925Z,15.56
2023-04-11T08:48:45.252Z,15.72
2023-04-11T08:49:47.412Z,15.34
2023-04-11T08:50:49.478Z,15.63
2023-04-11T08:51:53.444Z,15.70
2023-04-11T08:52:58.180Z,15.94
2023-04-11T08:54:03.938Z,15.86
2023-04-11T08:55:06.549Z,15.91
2023-04-11T08:56:14.466Z,15.93
2023-04-11T08:57:27.312Z,15.59
2023-04-11T08:58:29.234Z,15.59
2023-04-11T08:59:32.949Z,15.74
2023-04-11T09:00:35.048Z,15.76
2023-04-11T09:01:37.002Z,15.83
2023-04-11T09:04:08.020Z,15.94
2023-04-11T09:05:13.669Z,15.77
2023-04-11T09:06:16.171Z,15.81
2023-04-11T09:07:18.173Z,15.75
2023-04-11T09:08:20.056Z,15.76
2023-04-11T09:09:29.223Z,15.75
2023-04-11T09:10:32.080Z,15.78
2023-04-11T09:11:53.796Z,16.11
2023-04-11T09:12:56.689Z,16.04
2023-04-11T09:14:09.768Z,16.11
2023-04-11T09:15:20.923Z,16.26
2023-04-11T09:16:23.193Z,16.29
2023-04-11T09:17:28.989Z,16.27
2023-04-11T09:18:34.559Z,16.30
2023-04-11T09:19:36.548Z,16.41
2023-04-11T09:20:38.539Z,16.70
2023-04-11T09:21:48.572Z,16.72
2023-04-11T09:22:50.957Z,16.78
2023-04-11T09:23:52.819Z,16.64
2023-04-11T09:25:02.228Z,16.45
2023-04-11T09:26:06.487Z,16.22
2023-04-11T09:27:16.754Z,16.64
2023-04-11T09:28:19.431Z,16.55
2023-04-11T09:29:38.638Z,16.48
2023-04-11T09:30:44.513Z,16.46
2023-04-11T09:31:48.445Z,16.43
2023-04-11T09:32:53.032Z,16.28
2023-04-11T09:33:58.150Z,16.20
2023-04-11T09:35:08.011Z,16.24
2023-04-11T09:36:19.343Z,16.45
2023-04-11T09:37:21.371Z,16.24
2023-04-11T09:38:30.043Z,16.24
2023-04-11T09:39:32.034Z,16.10
2023-04-11T09:40:42.506Z,16.15
2023-04-11T09:41:44.887Z,16.15
2023-04-11T09:42:48.656Z,15.92
2023-04-11T09:45:05.598Z,16.22
2023-04-11T09:46:09.472Z,16.07
2023-04-11T09:47:11.592Z,16.21
2023-04-11T09:48:13.526Z,16.32
2023-04-11T09:49:15.564Z,16.11
2023-04-11T09:50:18.359Z,16.01
2023-04-11T09:51:34.413Z,15.92
2023-04-11T09:52:26.479Z,15.97
2023-04-11T09:53:29.478Z,16.12
2023-04-11T09:54:32.840Z,16.31
2023-04-11T09:55:37.198Z,16.35
2023-04-11T09:56:39.798Z,16.37
2023-04-11T09:57:47.526Z,16.40
2023-04-11T09:58:49.914Z,16.30
2023-04-11T09:59:53.431Z,16.07
2023-04-11T10:00:55.913Z,15.88
2023-04-11T10:01:57.878Z,16.19
2023-04-11T10:03:00.732Z,16.19
2023-04-11T10:04:02.847Z,16.38
2023-04-11T10:05:06.461Z,16.27
2023-04-11T10:06:15.636Z,16.32
2023-04-11T10:07:19.024Z,16.17
2023-04-11T10:08:27.808Z,16.12
2023-04-11T10:09:31.638Z,16.15
2023-04-11T10:10:35.363Z,16.18
2023-04-11T10:11:42.735Z,16.20
2023-04-11T10:12:45.955Z,16.31
2023-04-11T10:13:47.876Z,16.25
2023-04-11T10:14:49.741Z,16.27
2023-04-11T10:16:12.354Z,16.30
2023-04-11T10:17:22.855Z,16.04
2023-04-11T10:18:23.048Z,15.96
2023-04-11T10:19:25.104Z,15.91
2023-04-11T10:20:36.214Z,15.87
2023-04-11T10:21:38.787Z,16.15
2023-04-11T10:22:44.456Z,16.11
2023-04-11T10:24:09.985Z,16.37
2023-04-11T10:25:22.118Z,16.46
2023-04-11T10:26:46.222Z,16.39
2023-04-11T10:27:50.462Z,16.32
2023-04-11T10:28:52.470Z,16.43
2023-04-11T10:29:54.346Z,16.39
2023-04-11T10:31:06.395Z,16.22
2023-04-11T10:32:13.939Z,16.31
2023-04-11T10:33:17.448Z,16.34
2023-04-11T10:34:20.872Z,16.33
2023-04-11T10:35:24.256Z,16.24
2023-04-11T10:36:26.237Z,16.21
2023-04-11T10:37:33.672Z,16.10
2023-04-11T10:38:44.914Z,16.09
2023-04-11T10:39:51.769Z,16.24
2023-04-11T10:41:20.494Z,16.24
2023-04-11T10:42:30.308Z,16.40
2023-04-11T10:43:33.218Z,16.42
2023-04-11T10:44:36.004Z,16.44
2023-04-11T10:45:38.043Z,16.38
2023-04-11T10:46:46.008Z,16.50
2023-04-11T10:47:57.682Z,16.55
2023-04-11T10:49:04.304Z,16.71
2023-04-11T10:50:28.807Z,16.54
2023-04-11T10:51:32.934Z,16.59
2023-04-11T10:52:37.264Z,16.47
2023-04-11T10:53:39.547Z,16.47
2023-04-11T10:54:41.783Z,16.54
2023-04-11T10:55:47.081Z,16.53
2023-04-11T10:56:54.142Z,16.55
2023-04-11T10:58:14.662Z,16.33
2023-04-11T10:59:35.683Z,16.37
2023-04-11T11:00:51.157Z,16.41
2023-04-11T11:01:59.677Z,16.39
2023-04-11T11:03:02.427Z,16.48
2023-04-11T11:04:05.185Z,16.38
2023-04-11T11:05:15.022Z,16.43
2023-04-11T11:06:17.458Z,16.38
2023-04-11T11:07:19.326Z,16.54
2023-04-11T11:08:33.053Z,16.44
2023-04-11T11:09:35.061Z,16.32
2023-04-11T11:10:40.036Z,16.35
2023-04-11T11:11:42.075Z,16.41
2023-04-11T11:12:53.739Z,16.37
2023-04-11T11:13:56.194Z,16.23
2023-04-11T11:15:00.447Z,16.16
2023-04-11T11:16:02.689Z,16.26
2023-04-11T11:17:06.486Z,16.14
2023-04-11T11:18:09.635Z,16.06
2023-04-11T11:19:13.517Z,16.11
2023-04-11T11:20:17.527Z,16.01
2023-04-11T11:21:27.902Z,16.04
2023-04-11T11:22:26.175Z,16.12
2023-04-11T11:23:28.310Z,16.08
2023-04-11T11:24:30.618Z,16.14
2023-04-11T11:25:33.954Z,16.05
2023-04-11T11:26:41.439Z,16.05
2023-04-11T11:27:43.368Z,16.07
2023-04-11T11:28:46.638Z,16.20
2023-04-11T11:29:48.819Z,16.19
2023-04-11T11:30:54.975Z,16.07
2023-04-11T11:31:56.885Z,16.04
2023-04-11T11:32:59.489Z,16.08
2023-04-11T11:34:18.455Z,16.06
2023-04-11T11:35:15.498Z,15.99
2023-04-11T11:36:17.832Z,16.04
2023-04-11T11:37:20.175Z,16.04
2023-04-11T11:38:27.699Z,16.00
2023-04-11T11:39:32.112Z,16.09
2023-04-11T11:40:34.385Z,16.16
2023-04-11T11:41:38.448Z,16.18
2023-04-11T11:42:40.888Z,16.22
2023-04-11T11:43:42.750Z,16.34
2023-04-11T11:44:44.635Z,16.29
2023-04-11T11:45:47.117Z,16.27
2023-04-11T11:47:06.995Z,16.27
2023-04-11T11:48:21.618Z,16.18
2023-04-11T11:49:23.901Z,16.18
2023-04-11T11:51:40.334Z,16.18
2023-04-11T11:52:42.343Z,16.32
2023-04-11T11:53:46.216Z,16.30
2023-04-11T11:54:48.601Z,16.36
2023-04-11T11:55:50.873Z,16.43
2023-04-11T11:56:52.985Z,16.49
2023-04-11T11:58:00.685Z,16.52
2023-04-11T11:59:03.416Z,16.35
2023-04-11T12:00:07.214Z,16.41
2023-04-11T12:02:16.600Z,16.51
2023-04-11T12:03:24.446Z,16.53
2023-04-11T12:04:26.858Z,16.72
2023-04-11T12:05:31.198Z,16.52
2023-04-11T12:06:33.522Z,16.62
2023-04-11T12:07:41.604Z,16.63
2023-04-11T12:08:45.757Z,16.67
2023-04-11T12:09:48.741Z,16.70
2023-04-11T12:10:51.570Z,16.78
2023-04-11T12:11:54.039Z,16.82
2023-04-11T12:12:55.918Z,16.71
2023-04-11T12:13:58.166Z,16.83
2023-04-11T12:15:01.718Z,16.83
2023-04-11T12:16:04.652Z,16.73
2023-04-11T12:17:09.243Z,16.78
2023-04-11T12:18:11.523Z,16.71
2023-04-11T12:19:13.704Z,16.70
2023-04-11T12:20:16.191Z,16.65
2023-04-11T12:21:18.046Z,16.52
2023-04-11T12:22:19.913Z,16.51
2023-04-11T12:23:22.912Z,16.49
2023-04-11T12:24:24.886Z,16.36
2023-04-11T12:25:27.251Z,16.58
2023-04-11T12:26:29.225Z,16.56
2023-04-11T12:27:31.320Z,16.27
2023-04-11T12:28:33.245Z,16.42
2023-04-11T12:29:35.108Z,16.54
2023-04-11T12:30:37.913Z,16.66
2023-04-11T12:31:39.905Z,16.56
2023-04-11T12:32:43.282Z,16.50
2023-04-11T12:33:45.419Z,16.66
2023-04-11T12:34:47.359Z,16.67
2023-04-11T12:35:49.459Z,16.69
2023-04-11T12:36:51.549Z,16.52
2023-04-11T12:37:53.409Z,16.53
2023-04-11T12:38:55.399Z,16.51
2023-04-11T12:39:57.745Z,16.64
2023-04-11T12:41:19.876Z,16.73
2023-04-11T12:42:05.375Z,16.69
2023-04-11T12:43:07.342Z,16.65
2023-04-11T12:44:09.200Z,16.72
2023-04-11T12:45:12.528Z,16.64
2023-04-11T12:46:14.777Z,16.35
2023-04-11T12:47:17.080Z,16.52
2023-04-11T12:48:19.070Z,16.53
2023-04-11T12:49:20.930Z,16.29
2023-04-11T12:50:23.068Z,16.37
2023-04-11T12:51:25.032Z,16.34
2023-04-11T12:52:28.676Z,16.18
2023-04-11T12:53:30.709Z,16.23
2023-04-11T12:54:32.988Z,16.13
2023-04-11T12:55:35.021Z,16.02
2023-04-11T12:56:38.520Z,16.06
2023-04-11T12:57:40.451Z,15.86
2023-04-11T12:58:42.339Z,15.84
2023-04-11T12:59:44.598Z,15.97
2023-04-11T13:00:46.679Z,15.96
2023-04-11T13:01:48.618Z,16.08
2023-04-11T13:02:50.860Z,16.09
2023-04-11T13:03:53.199Z,16.18
2023-04-11T13:04:55.399Z,16.18
2023-04-11T13:05:57.545Z,16.21
2023-04-11T13:06:59.618Z,16.21
2023-04-11T13:08:01.628Z,16.34
2023-04-11T13:09:05.833Z,16.30
2023-04-11T13:10:09.471Z,16.39
2023-04-11T13:11:11.341Z,16.32
2023-04-11T13:12:13.679Z,16.37
2023-04-11T13:13:18.547Z,16.32
2023-04-11T13:14:19.491Z,16.32
2023-04-11T13:15:21.654Z,16.25
2023-04-11T13:16:23.898Z,16.33
2023-04-11T13:17:25.832Z,16.34
2023-04-11T13:18:27.816Z,16.42
2023-04-11T13:19:29.731Z,16.35
2023-04-11T13:20:31.722Z,16.34
2023-04-11T13:21:33.745Z,16.36
2023-04-11T13:22:37.120Z,16.41
2023-04-11T13:23:39.171Z,16.46
2023-04-11T13:24:41.323Z,16.39
2023-04-11T13:25:43.334Z,16.27
2023-04-11T13:26:45.376Z,16.30
2023-04-11T13:27:47.268Z,16.32
2023-04-11T13:28:49.278Z,16.41
2023-04-11T13:29:51.306Z,16.28
2023-04-11T13:30:55.055Z,16.41
2023-04-11T13:31:57.005Z,16.24
2023-04-11T13:32:59.257Z,16.43
2023-04-11T13:34:01.944Z,16.43
2023-04-11T13:35:04.450Z,16.51
2023-04-11T13:36:09.491Z,16.54
2023-04-11T13:37:11.400Z,16.48
2023-04-11T13:38:13.375Z,16.47
2023-04-11T13:39:15.329Z,16.38
2023-04-11T13:40:17.468Z,16.37
2023-04-11T13:41:20.046Z,16.44
2023-04-11T13:42:22.021Z,16.50
2023-04-11T13:43:23.888Z,16.45
2023-04-11T13:44:25.875Z,16.42
2023-04-11T13:45:27.848Z,16.41
2023-04-11T13:46:30.016Z,16.38
2023-04-11T13:47:34.845Z,16.36
2023-04-11T13:48:37.401Z,16.32
2023-04-11T13:49:39.376Z,16.33
2023-04-11T13:50:41.827Z,16.30